| Date | Time | Temp. (oF) | Dew Point (oF) | Rel. Hum. (%) | Press. (in.) | Wind Dir. | Wind Speed (mph) | Hourly Rainfall (in.) |
|
|---|---|---|---|---|---|---|---|---|---|
| 1 | 02/19 | 00:00 | 35 | 22 | 61 | 30.11 | NW | 2 | 0.00 |
| 2 | 02/18 | 23:00 | 37 | 21 | 53 | 30.08 | NNE | 9 | 0.00 |
| 3 | 02/18 | 22:00 | 39 | 21 | 50 | 30.07 | NNE | 7 | 0.00 |
| 4 | 02/18 | 21:00 | 41 | 25 | 53 | 30.05 | NW | 7 | 0.00 |
| 5 | 02/18 | 20:00 | 44 | 29 | 57 | 30.01 | N | 8 | 0.00 |
| 6 | 02/18 | 19:00 | 46 | 34 | 65 | 29.98 | N | 5 | 0.00 |
| 7 | 02/18 | 18:00 | 47 | 33 | 59 | 29.96 | NNW | 3 | 0.00 |
| 8 | 02/18 | 17:00 | 48 | 32 | 54 | 29.89 | SSW | 6 | 0.00 |
| 9 | 02/18 | 16:00 | 50 | 29 | 46 | 29.87 | SW | 11 | 0.00 |
| 10 | 02/18 | 15:00 | 51 | 29 | 44 | 29.87 | SW | 13 | 0.00 |
| 11 | 02/18 | 14:00 | 50 | 29 | 46 | 29.91 | SSW | 10 | 0.00 |
| 12 | 02/18 | 13:00 | 48 | 27 | 45 | 29.96 | SW | 11 | 0.00 |
| 13 | 02/18 | 12:00 | 45 | 24 | 45 | 30.02 | SSW | 10 | 0.00 |
| 14 | 02/18 | 11:00 | 42 | 21 | 43 | 30.05 | SSW | 5 | 0.00 |
| 15 | 02/18 | 10:00 | 39 | 23 | 53 | 30.09 | S | 8 | 0.00 |
| 16 | 02/18 | 09:00 | 36 | 25 | 66 | 30.11 | SW | 4 | 0.00 |
| 17 | 02/18 | 08:00 | 27 | 25 | 93 | 30.12 | SW | 2 | 0.00 |
| 18 | 02/18 | 07:00 | 27 | 22 | 84 | 30.12 | W | 0 | 0.00 |
| 19 | 02/18 | 06:00 | 27 | 22 | 83 | 30.11 | WNW | 0 | 0.00 |
| 20 | 02/18 | 05:00 | 31 | 20 | 66 | 30.12 | NE | 2 | 0.00 |
| 21 | 02/18 | 04:00 | 33 | 21 | 63 | 30.13 | NNE | 3 | 0.00 |
| 22 | 02/18 | 03:00 | 34 | 26 | 74 | 30.12 | N | 2 | 0.00 |
| 23 | 02/18 | 02:00 | 35 | 26 | 72 | 30.12 | WNW | 4 | 0.00 |
| 24 | 02/18 | 01:00 | 31 | 28 | 90 | 30.11 | WNW | 1 | 0.00 |